createdAt,value
2023-04-17T00:00:50.269Z,15.23
2023-04-17T00:03:21.713Z,14.52
2023-04-17T00:05:49.578Z,17.38
2023-04-17T00:08:16.770Z,17.00
2023-04-17T00:10:47.110Z,17.33
2023-04-17T00:13:20.997Z,16.73
2023-04-17T00:15:48.248Z,18.27
2023-04-17T00:18:15.327Z,17.45
2023-04-17T00:20:42.621Z,18.20
2023-04-17T00:23:09.657Z,17.92
2023-04-17T00:25:37.154Z,16.50
2023-04-17T00:28:04.268Z,18.92
2023-04-17T00:30:31.553Z,16.60
2023-04-17T00:32:58.537Z,17.70
2023-04-17T00:35:26.081Z,16.67
2023-04-17T00:37:53.048Z,16.85
2023-04-17T00:40:20.689Z,18.77
2023-04-17T00:42:52.981Z,18.48
2023-04-17T00:45:21.762Z,17.58
2023-04-17T00:47:50.579Z,17.40
2023-04-17T00:50:18.437Z,18.05
2023-04-17T00:52:46.359Z,18.33
2023-04-17T00:55:15.459Z,16.65
2023-04-17T00:57:43.839Z,18.70
2023-04-17T01:00:11.800Z,19.55
2023-04-17T01:02:39.038Z,17.55
2023-04-17T01:05:06.678Z,18.20
2023-04-17T01:07:33.812Z,17.08
2023-04-17T01:10:01.176Z,17.65
2023-04-17T01:12:28.231Z,18.08
2023-04-17T01:14:56.885Z,17.08
2023-04-17T01:17:26.377Z,19.98
2023-04-17T01:19:54.465Z,17.30
2023-04-17T01:22:21.517Z,19.40
2023-04-17T01:24:49.317Z,18.98
2023-04-17T01:27:16.338Z,18.58
2023-04-17T01:29:44.485Z,18.15
2023-04-17T01:32:11.547Z,18.15
2023-04-17T01:34:38.995Z,19.95
2023-04-17T01:37:07.084Z,17.88
2023-04-17T01:39:34.402Z,17.65
2023-04-17T01:42:01.389Z,17.15
2023-04-17T01:44:28.680Z,17.83
2023-04-17T01:46:55.683Z,16.30
2023-04-17T01:49:23.155Z,19.17
2023-04-17T01:51:50.130Z,16.80
2023-04-17T01:54:17.367Z,17.83
2023-04-17T01:56:44.370Z,17.85
2023-04-17T01:59:12.185Z,18.83
2023-04-17T02:01:39.406Z,19.73
2023-04-17T02:04:06.883Z,18.45
2023-04-17T02:06:34.094Z,18.65
2023-04-17T02:09:01.692Z,21.23
2023-04-17T02:11:28.721Z,22.65
2023-04-17T02:13:56.016Z,24.20
2023-04-17T02:16:23.005Z,33.03
2023-04-17T02:18:51.424Z,34.47
2023-04-17T02:21:18.594Z,34.58
2023-04-17T02:23:45.916Z,33.50
2023-04-17T02:26:13.029Z,25.23
2023-04-17T02:28:40.577Z,22.30
2023-04-17T02:31:08.780Z,22.60
2023-04-17T02:33:36.876Z,18.23
2023-04-17T02:36:06.335Z,18.02
2023-04-17T02:38:33.795Z,16.48
2023-04-17T02:41:00.830Z,17.25
2023-04-17T02:43:28.090Z,16.67
2023-04-17T02:45:55.496Z,19.10
2023-04-17T02:48:22.753Z,18.83
2023-04-17T02:50:50.146Z,18.60
2023-04-17T02:53:17.489Z,16.75
2023-04-17T02:55:44.573Z,18.10
2023-04-17T02:58:12.130Z,17.55
2023-04-17T03:00:40.508Z,16.58
2023-04-17T03:03:08.266Z,15.95
2023-04-17T03:05:35.986Z,16.92
2023-04-17T03:08:03.419Z,18.55
2023-04-17T03:10:30.543Z,16.05
2023-04-17T03:12:57.832Z,17.75
2023-04-17T03:15:24.834Z,17.17
2023-04-17T03:17:52.523Z,16.02
2023-04-17T03:20:19.528Z,14.50
2023-04-17T03:22:46.923Z,15.00
2023-04-17T03:25:14.004Z,15.85
2023-04-17T03:27:41.291Z,15.60
2023-04-17T03:30:08.972Z,15.43
2023-04-17T03:32:38.094Z,15.05
2023-04-17T03:35:05.689Z,14.70
2023-04-17T03:37:33.127Z,15.30
2023-04-17T03:40:00.144Z,13.90
2023-04-17T03:42:27.661Z,13.15
2023-04-17T03:44:56.086Z,13.80
2023-04-17T03:47:23.786Z,13.30
2023-04-17T03:49:50.910Z,12.10
2023-04-17T03:52:18.556Z,12.63
2023-04-17T03:54:46.542Z,15.60
2023-04-17T03:57:14.059Z,11.13
2023-04-17T03:59:41.105Z,10.57
2023-04-17T04:02:08.451Z,10.93
2023-04-17T04:04:35.854Z,11.35
2023-04-17T04:07:03.809Z,10.57
2023-04-17T04:09:31.138Z,12.20
2023-04-17T04:11:58.762Z,10.85
2023-04-17T04:14:25.770Z,11.77
2023-04-17T04:16:53.037Z,11.38
2023-04-17T04:19:20.034Z,11.13
2023-04-17T04:21:47.389Z,12.27
2023-04-17T04:24:14.480Z,10.43
2023-04-17T04:26:42.376Z,10.98
2023-04-17T04:29:11.854Z,10.35
2023-04-17T04:31:40.379Z,11.00
2023-04-17T04:34:08.873Z,11.70
2023-04-17T04:36:36.507Z,11.57
2023-04-17T04:39:06.804Z,11.60
2023-04-17T04:41:34.383Z,11.93
2023-04-17T04:44:01.347Z,11.32
2023-04-17T04:46:28.744Z,12.55
2023-04-17T04:48:55.900Z,11.70
2023-04-17T04:51:23.251Z,11.15
2023-04-17T04:53:50.281Z,12.75
2023-04-17T04:56:17.755Z,11.07
2023-04-17T04:58:44.719Z,11.63
2023-04-17T05:01:13.171Z,11.02
2023-04-17T05:03:40.894Z,12.45
2023-04-17T05:06:09.505Z,13.15
2023-04-17T05:08:37.271Z,11.45
2023-04-17T05:11:05.118Z,12.45
2023-04-17T05:13:32.222Z,12.10
2023-04-17T05:16:01.635Z,11.52
2023-04-17T05:18:29.055Z,10.30
2023-04-17T05:20:56.416Z,10.48
2023-04-17T05:23:23.425Z,11.98
2023-04-17T05:25:51.030Z,10.95
2023-04-17T05:28:18.041Z,10.43
2023-04-17T05:30:46.012Z,11.02
2023-04-17T05:33:13.025Z,10.82
2023-04-17T05:35:40.442Z,11.40
2023-04-17T05:38:08.085Z,11.57
2023-04-17T05:40:37.967Z,12.60
2023-04-17T05:43:09.309Z,12.45
2023-04-17T05:45:37.003Z,13.35
2023-04-17T05:48:04.527Z,13.27
2023-04-17T05:50:31.951Z,13.40
2023-04-17T05:52:59.053Z,11.82
2023-04-17T05:55:26.840Z,11.43
2023-04-17T05:57:54.356Z,12.68
2023-04-17T06:00:23.070Z,9.88
2023-04-17T06:02:52.368Z,9.00
2023-04-17T06:05:20.815Z,8.60
2023-04-17T06:07:47.922Z,6.70
2023-04-17T06:10:15.601Z,6.10
2023-04-17T06:12:42.820Z,5.88
2023-04-17T06:15:11.144Z,4.80
2023-04-17T06:17:39.345Z,5.00
2023-04-17T06:20:11.675Z,5.00
2023-04-17T06:22:40.147Z,4.40
2023-04-17T06:25:08.347Z,4.30
2023-04-17T06:27:37.020Z,4.95
2023-04-17T06:30:06.188Z,5.50
2023-04-17T06:32:33.382Z,5.38
2023-04-17T06:35:00.839Z,4.78
2023-04-17T06:37:27.914Z,5.22
2023-04-17T06:39:55.246Z,5.82
2023-04-17T06:42:22.296Z,4.72
2023-04-17T06:44:49.956Z,6.45
2023-04-17T06:47:16.973Z,5.53
2023-04-17T06:49:44.714Z,5.22
2023-04-17T06:52:12.012Z,6.25
2023-04-17T06:54:39.872Z,7.22
2023-04-17T06:57:10.955Z,5.63
2023-04-17T06:59:38.814Z,6.60
2023-04-17T07:02:06.298Z,7.38
2023-04-17T07:04:33.827Z,7.68
2023-04-17T07:07:00.970Z,7.35
2023-04-17T07:09:28.788Z,7.30
2023-04-17T07:11:55.888Z,8.05
2023-04-17T07:14:23.373Z,8.43
2023-04-17T07:16:50.690Z,8.35
2023-04-17T07:19:18.325Z,8.75
2023-04-17T07:21:45.622Z,7.53
2023-04-17T07:24:13.443Z,9.35
2023-04-17T07:26:43.221Z,8.77
2023-04-17T07:29:10.993Z,8.70
2023-04-17T07:31:39.181Z,8.73
2023-04-17T07:34:08.143Z,10.25
2023-04-17T07:36:35.528Z,8.85
2023-04-17T07:39:03.387Z,9.18
2023-04-17T07:41:30.539Z,10.43
2023-04-17T07:43:59.169Z,9.52
2023-04-17T07:46:26.489Z,9.35
2023-04-17T07:48:53.850Z,8.60
2023-04-17T07:51:21.050Z,8.18
2023-04-17T07:53:48.579Z,7.65
2023-04-17T07:56:16.337Z,7.25
2023-04-17T07:58:45.110Z,7.70
2023-04-17T08:01:12.684Z,9.10
2023-04-17T08:03:41.877Z,9.18
2023-04-17T08:06:09.169Z,9.90
2023-04-17T08:08:37.615Z,9.25
2023-04-17T08:11:04.886Z,8.30
2023-04-17T08:13:32.609Z,9.35
2023-04-17T08:15:59.705Z,8.32
2023-04-17T08:18:27.079Z,8.55
2023-04-17T08:20:54.152Z,8.60
2023-04-17T08:23:21.617Z,8.80
2023-04-17T08:25:48.722Z,8.95
2023-04-17T08:28:16.384Z,8.93
2023-04-17T08:30:43.479Z,8.63
2023-04-17T08:33:13.530Z,9.15
2023-04-17T08:35:40.798Z,8.45
2023-04-17T08:38:34.467Z,8.77
2023-04-17T08:41:54.233Z,8.65
2023-04-17T08:44:21.784Z,8.68
2023-04-17T08:46:50.620Z,9.25
2023-04-17T08:49:18.249Z,8.30
2023-04-17T08:51:47.049Z,8.90
2023-04-17T08:54:14.677Z,9.35
2023-04-17T08:56:41.713Z,9.15
2023-04-17T08:59:09.128Z,10.65
2023-04-17T09:01:37.671Z,9.25
2023-04-17T09:04:05.429Z,9.20
2023-04-17T09:06:50.264Z,8.60
2023-04-17T09:09:17.854Z,9.50
2023-04-17T09:11:45.703Z,9.85
2023-04-17T09:14:31.596Z,8.98
2023-04-17T09:16:58.827Z,8.65
2023-04-17T09:19:26.481Z,8.35
2023-04-17T09:21:54.810Z,9.32
2023-04-17T09:24:35.293Z,7.95
2023-04-17T09:27:22.551Z,7.82
2023-04-17T09:30:02.688Z,7.60
2023-04-17T09:32:31.786Z,7.13
2023-04-17T09:35:01.770Z,6.18
2023-04-17T09:37:53.160Z,5.68
2023-04-17T09:40:21.992Z,4.68
2023-04-17T09:42:59.332Z,5.15
2023-04-17T09:45:33.458Z,4.85
2023-04-17T09:48:01.138Z,4.90
2023-04-17T09:50:29.769Z,5.00
2023-04-17T09:52:57.299Z,4.55
2023-04-17T09:55:30.021Z,5.30
2023-04-17T09:57:59.021Z,6.22
2023-04-17T10:00:27.893Z,6.45
2023-04-17T10:02:57.015Z,6.43
2023-04-17T10:05:27.211Z,5.95
2023-04-17T10:07:54.633Z,5.78
2023-04-17T10:10:31.320Z,6.22
2023-04-17T10:13:00.879Z,6.43
2023-04-17T10:15:29.561Z,6.00
2023-04-17T10:18:24.228Z,5.75
2023-04-17T10:20:53.969Z,5.82
2023-04-17T10:23:32.509Z,5.25
2023-04-17T10:26:24.907Z,5.97
2023-04-17T10:28:53.476Z,5.90
2023-04-17T10:31:26.015Z,6.05
2023-04-17T10:33:54.551Z,6.20
2023-04-17T10:36:39.987Z,6.35
2023-04-17T10:39:14.530Z,6.60
2023-04-17T10:42:08.578Z,5.55
2023-04-17T10:47:16.120Z,5.88
2023-04-17T10:50:00.162Z,7.55
2023-04-17T10:52:40.323Z,6.65
2023-04-17T10:55:20.988Z,6.53
2023-04-17T10:57:59.551Z,7.57
2023-04-17T11:00:36.785Z,6.38
2023-04-17T11:03:05.677Z,6.72
2023-04-17T11:05:33.025Z,7.32
2023-04-17T11:08:00.808Z,6.68
2023-04-17T11:10:28.025Z,6.47
2023-04-17T11:12:58.384Z,6.85
2023-04-17T11:15:27.986Z,7.53
2023-04-17T11:17:56.531Z,6.88
2023-04-17T11:20:29.871Z,7.30
2023-04-17T11:23:01.499Z,7.32
2023-04-17T11:25:33.935Z,7.38
2023-04-17T11:28:06.467Z,7.70
2023-04-17T11:30:40.652Z,8.85
2023-04-17T11:33:09.055Z,8.93
2023-04-17T11:35:38.657Z,8.98
2023-04-17T11:38:07.088Z,7.75
2023-04-17T11:40:34.313Z,8.30
2023-04-17T11:43:08.179Z,8.02
2023-04-17T11:45:36.521Z,7.82
2023-04-17T11:48:04.476Z,7.20
2023-04-17T11:50:33.050Z,7.55
2023-04-17T11:53:02.236Z,5.93
2023-04-17T11:55:34.434Z,7.47
2023-04-17T11:58:05.629Z,7.28
2023-04-17T12:00:33.517Z,7.28
2023-04-17T12:03:02.980Z,7.90
2023-04-17T12:05:31.162Z,9.80
2023-04-17T12:08:04.458Z,11.00
2023-04-17T12:10:42.434Z,14.32
2023-04-17T12:13:12.791Z,14.10
2023-04-17T12:15:39.868Z,15.77
2023-04-17T12:18:08.985Z,14.82
2023-04-17T12:20:36.741Z,14.23
2023-04-17T12:23:05.663Z,14.32
2023-04-17T12:25:35.912Z,14.13
2023-04-17T12:28:05.006Z,13.88
2023-04-17T12:30:35.994Z,13.65
2023-04-17T12:33:03.473Z,15.63
2023-04-17T12:35:30.806Z,14.68
2023-04-17T12:37:58.088Z,13.85
2023-04-17T12:40:25.403Z,13.57
2023-04-17T12:42:52.798Z,11.13
2023-04-17T12:45:20.126Z,15.20
2023-04-17T12:47:47.564Z,14.80
2023-04-17T12:50:14.675Z,15.13
2023-04-17T12:52:42.144Z,14.88
2023-04-17T12:55:10.032Z,14.30
2023-04-17T12:57:37.425Z,13.18
2023-04-17T13:00:07.053Z,12.65
2023-04-17T13:02:35.283Z,11.63
2023-04-17T13:05:02.849Z,12.50
2023-04-17T13:07:30.770Z,11.32
2023-04-17T13:09:57.873Z,12.23
2023-04-17T13:12:25.899Z,11.27
2023-04-17T13:14:54.375Z,10.05
2023-04-17T13:17:22.053Z,8.70
2023-04-17T13:19:49.142Z,9.00
2023-04-17T13:22:18.923Z,8.40
2023-04-17T13:24:46.591Z,7.75
2023-04-17T13:27:14.222Z,7.38
2023-04-17T13:29:41.326Z,7.57
2023-04-17T13:32:10.017Z,7.40
2023-04-17T13:34:37.108Z,8.20
2023-04-17T13:37:04.451Z,7.90
2023-04-17T13:39:31.530Z,7.22
2023-04-17T13:41:58.867Z,8.13
2023-04-17T13:44:26.214Z,7.03
2023-04-17T13:46:53.596Z,7.35
2023-04-17T13:49:21.201Z,6.88
2023-04-17T13:51:48.576Z,6.80
2023-04-17T13:54:15.793Z,8.18
2023-04-17T13:56:43.558Z,7.65
2023-04-17T13:59:10.940Z,6.65
2023-04-17T14:01:38.886Z,7.20
2023-04-17T14:04:06.230Z,7.72
2023-04-17T14:06:36.912Z,7.70
2023-04-17T14:09:05.737Z,6.35
2023-04-17T14:11:33.132Z,7.03
2023-04-17T14:14:00.354Z,7.13
2023-04-17T14:16:28.323Z,7.32
2023-04-17T14:18:57.857Z,7.10
2023-04-17T14:21:27.806Z,6.90
2023-04-17T14:23:56.867Z,7.63
2023-04-17T14:26:24.518Z,7.43
2023-04-17T14:28:51.615Z,6.88
2023-04-17T14:31:19.238Z,6.55
2023-04-17T14:33:46.458Z,6.57
2023-04-17T14:36:27.772Z,6.43
2023-04-17T14:39:06.626Z,6.57
2023-04-17T14:41:37.400Z,6.25
2023-04-17T14:44:04.579Z,6.38
2023-04-17T14:46:32.494Z,6.47
2023-04-17T14:48:59.659Z,6.60
2023-04-17T14:51:27.380Z,7.00
2023-04-17T14:53:54.537Z,5.97
2023-04-17T14:56:22.407Z,5.47
2023-04-17T14:58:49.581Z,6.50
2023-04-17T15:01:17.002Z,6.50
2023-04-17T15:03:46.744Z,6.32
2023-04-17T15:06:16.519Z,6.43
2023-04-17T15:08:43.657Z,7.07
2023-04-17T15:11:11.180Z,6.68
2023-04-17T15:13:40.305Z,6.75
2023-04-17T15:16:09.680Z,7.95
2023-04-17T15:18:39.463Z,6.93
2023-04-17T15:21:07.134Z,6.85
2023-04-17T15:23:35.477Z,7.95
2023-04-17T15:26:03.461Z,6.20
2023-04-17T15:28:30.486Z,7.43
2023-04-17T15:30:57.832Z,7.35
2023-04-17T15:33:24.929Z,6.60
2023-04-17T15:35:55.736Z,6.60
2023-04-17T15:38:22.799Z,7.25
2023-04-17T15:40:50.764Z,7.30
2023-04-17T15:43:17.953Z,7.68
2023-04-17T15:45:45.478Z,6.45
2023-04-17T15:48:12.640Z,6.03
2023-04-17T15:50:39.984Z,7.75
2023-04-17T15:53:07.238Z,7.28
2023-04-17T15:55:36.791Z,7.10
2023-04-17T15:58:04.522Z,5.95
2023-04-17T16:00:32.066Z,6.40
2023-04-17T16:02:59.384Z,6.85
2023-04-17T16:05:27.046Z,5.57
2023-04-17T16:07:54.198Z,5.88
2023-04-17T16:10:21.811Z,7.10
2023-04-17T16:12:48.858Z,7.22
2023-04-17T16:15:17.625Z,7.00
2023-04-17T16:17:49.116Z,7.38
2023-04-17T16:20:16.988Z,6.22
2023-04-17T16:22:44.119Z,6.93
2023-04-17T16:25:14.304Z,7.80
2023-04-17T16:27:41.426Z,7.30
2023-04-17T16:30:09.645Z,6.57
2023-04-17T16:32:36.853Z,7.75
2023-04-17T16:35:04.700Z,7.40
2023-04-17T16:37:31.825Z,5.95
2023-04-17T16:40:04.523Z,8.55
2023-04-17T16:42:32.371Z,7.30
2023-04-17T16:45:00.264Z,7.80
2023-04-17T16:47:29.780Z,7.57
2023-04-17T16:49:57.312Z,8.02
2023-04-17T16:52:24.530Z,8.18
2023-04-17T16:54:51.983Z,7.90
2023-04-17T16:57:19.087Z,7.32
2023-04-17T16:59:46.469Z,8.43
2023-04-17T17:02:14.237Z,7.65
2023-04-17T17:04:42.119Z,7.65
2023-04-17T17:07:09.249Z,7.57
2023-04-17T17:09:36.687Z,8.13
2023-04-17T17:12:03.895Z,7.80
2023-04-17T17:14:31.339Z,8.30
2023-04-17T17:16:58.531Z,8.40
2023-04-17T17:19:26.002Z,7.07
2023-04-17T17:21:55.116Z,8.70
2023-04-17T17:24:22.549Z,7.97
2023-04-17T17:26:49.898Z,8.73
2023-04-17T17:29:17.440Z,8.13
2023-04-17T17:31:44.495Z,8.25
2023-04-17T17:34:25.312Z,8.25
2023-04-17T17:36:53.448Z,8.25
2023-04-17T17:39:22.198Z,8.00
2023-04-17T17:41:49.760Z,8.02
2023-04-17T17:44:17.591Z,8.45
2023-04-17T17:46:44.884Z,8.32
2023-04-17T17:49:12.277Z,8.73
2023-04-17T17:51:39.506Z,7.97
2023-04-17T17:54:07.153Z,8.73
2023-04-17T17:56:34.927Z,8.05
2023-04-17T17:59:02.221Z,8.18
2023-04-17T18:01:29.435Z,8.75
2023-04-17T18:03:56.852Z,8.55
2023-04-17T18:06:24.236Z,8.48
2023-04-17T18:08:52.980Z,9.27
2023-04-17T18:11:20.492Z,9.68
2023-04-17T18:13:47.968Z,9.80
2023-04-17T18:16:15.117Z,8.77
2023-04-17T18:18:42.822Z,8.82
2023-04-17T18:21:11.241Z,9.70
2023-04-17T18:23:38.557Z,10.43
2023-04-17T18:26:05.637Z,9.77
2023-04-17T18:28:33.175Z,8.65
2023-04-17T18:31:00.560Z,9.07
2023-04-17T18:33:28.874Z,8.27
2023-04-17T18:35:56.299Z,9.20
2023-04-17T18:38:23.781Z,8.85
2023-04-17T18:40:59.479Z,8.82
2023-04-17T18:43:28.365Z,8.18
2023-04-17T18:45:55.506Z,9.65
2023-04-17T18:48:24.288Z,8.65
2023-04-17T18:50:51.560Z,8.77
2023-04-17T18:53:19.105Z,9.00
2023-04-17T18:55:46.346Z,8.70
2023-04-17T18:58:13.695Z,8.88
2023-04-17T19:00:40.850Z,8.93
2023-04-17T19:03:08.597Z,8.93
2023-04-17T19:05:36.153Z,8.88
2023-04-17T19:08:03.612Z,8.43
2023-04-17T19:10:31.139Z,8.50
2023-04-17T19:12:58.459Z,9.82
2023-04-17T19:15:25.903Z,7.93
2023-04-17T19:17:53.711Z,8.20
2023-04-17T19:20:22.759Z,8.75
2023-04-17T19:22:50.518Z,9.25
2023-04-17T19:25:17.628Z,8.68
2023-04-17T19:27:44.959Z,9.07
2023-04-17T19:30:12.391Z,7.72
2023-04-17T19:32:41.021Z,8.70
2023-04-17T19:35:08.689Z,9.77
2023-04-17T19:37:36.007Z,9.38
2023-04-17T19:40:08.671Z,9.00
2023-04-17T19:42:42.339Z,8.65
2023-04-17T19:45:10.750Z,7.30
2023-04-17T19:47:40.068Z,8.65
2023-04-17T19:50:10.102Z,8.32
2023-04-17T19:52:40.514Z,8.85
2023-04-17T19:55:09.248Z,8.20
2023-04-17T19:57:36.591Z,6.97
2023-04-17T20:00:03.970Z,7.88
2023-04-17T20:02:31.368Z,7.88
2023-04-17T20:04:58.418Z,8.52
2023-04-17T20:07:25.687Z,8.60
2023-04-17T20:09:52.719Z,8.13
2023-04-17T20:12:21.104Z,8.90
2023-04-17T20:14:49.551Z,8.18
2023-04-17T20:17:19.561Z,7.90
2023-04-17T20:19:46.631Z,8.75
2023-04-17T20:22:14.080Z,7.90
2023-04-17T20:24:41.057Z,8.40
2023-04-17T20:27:08.642Z,7.65
2023-04-17T20:29:35.776Z,8.45
2023-04-17T20:32:03.975Z,7.85
2023-04-17T20:34:35.004Z,8.55
2023-04-17T20:37:02.584Z,7.63
2023-04-17T20:39:29.655Z,7.07
2023-04-17T20:41:57.181Z,7.38
2023-04-17T20:44:24.176Z,7.90
2023-04-17T20:46:51.512Z,8.13
2023-04-17T20:49:18.544Z,7.05
2023-04-17T20:51:46.362Z,6.75
2023-04-17T20:54:13.548Z,7.50
2023-04-17T20:56:41.233Z,7.28
2023-04-17T20:59:08.181Z,7.35
2023-04-17T21:01:36.022Z,7.57
2023-04-17T21:04:03.411Z,7.40
2023-04-17T21:06:31.043Z,8.43
2023-04-17T21:08:58.164Z,7.95
2023-04-17T21:11:25.775Z,7.60
2023-04-17T21:13:53.302Z,8.00
2023-04-17T21:16:20.747Z,8.02
2023-04-17T21:18:47.777Z,8.82
2023-04-17T21:21:15.147Z,7.20
2023-04-17T21:23:42.113Z,8.30
2023-04-17T21:26:09.381Z,8.10
2023-04-17T21:28:37.765Z,9.15
2023-04-17T21:31:08.511Z,7.70
2023-04-17T21:33:36.625Z,8.38
2023-04-17T21:36:04.070Z,8.77
2023-04-17T21:38:31.129Z,8.80
2023-04-17T21:40:58.529Z,7.70
2023-04-17T21:43:28.342Z,8.55
2023-04-17T21:45:57.114Z,9.88
2023-04-17T21:48:24.251Z,9.77
2023-04-17T21:50:51.598Z,8.40
2023-04-17T21:53:18.656Z,8.25
2023-04-17T21:55:46.480Z,9.95
2023-04-17T21:58:13.383Z,9.05
2023-04-17T22:00:40.636Z,9.23
2023-04-17T22:03:07.639Z,9.82
2023-04-17T22:05:35.347Z,10.18
2023-04-17T22:08:02.586Z,9.48
2023-04-17T22:10:30.150Z,8.88
2023-04-17T22:12:57.361Z,8.95
2023-04-17T22:15:24.653Z,8.73
2023-04-17T22:17:51.707Z,8.43
2023-04-17T22:20:19.648Z,8.98
2023-04-17T22:22:47.449Z,8.80
2023-04-17T22:25:15.021Z,8.02
2023-04-17T22:27:42.352Z,7.97
2023-04-17T22:30:09.794Z,8.10
2023-04-17T22:32:36.958Z,7.43
2023-04-17T22:35:04.500Z,8.27
2023-04-17T22:37:32.812Z,7.97
2023-04-17T22:40:00.038Z,9.93
2023-04-17T22:42:27.049Z,8.90
2023-04-17T22:44:54.323Z,9.10
2023-04-17T22:47:21.720Z,8.65
2023-04-17T22:49:49.265Z,9.32
2023-04-17T22:52:16.386Z,9.45
2023-04-17T22:54:43.709Z,9.18
2023-04-17T22:57:11.206Z,10.48
2023-04-17T22:59:40.124Z,9.60
2023-04-17T23:02:07.476Z,9.18
2023-04-17T23:04:34.806Z,9.32
2023-04-17T23:07:01.999Z,10.68
2023-04-17T23:09:29.415Z,9.77
2023-04-17T23:11:56.426Z,10.00
2023-04-17T23:14:23.798Z,9.00
2023-04-17T23:16:52.711Z,11.73
2023-04-17T23:19:22.407Z,9.32
2023-04-17T23:21:49.432Z,9.55
2023-04-17T23:24:16.693Z,9.65
2023-04-17T23:26:43.640Z,9.68
2023-04-17T23:29:10.918Z,9.88
2023-04-17T23:31:38.421Z,9.55
2023-04-17T23:34:05.864Z,9.95
2023-04-17T23:36:33.222Z,10.45
2023-04-17T23:39:00.889Z,10.45
2023-04-17T23:41:28.011Z,9.55
2023-04-17T23:43:56.197Z,10.73
2023-04-17T23:46:23.325Z,9.55
2023-04-17T23:48:50.818Z,11.18
2023-04-17T23:51:18.212Z,9.48
2023-04-17T23:53:45.506Z,9.05
2023-04-17T23:56:12.543Z,10.38
2023-04-17T23:58:39.870Z,10.18
